createdAt,value
2017-05-09T00:00:05.357Z,1.73
2017-05-09T00:02:34.043Z,2.22
2017-05-09T00:05:02.849Z,2.20
2017-05-09T00:07:31.220Z,2.15
2017-05-09T00:18:39.958Z,2.77
2017-05-09T00:21:08.285Z,2.30
2017-05-09T00:23:37.346Z,2.27
2017-05-09T00:26:06.080Z,2.23
2017-05-09T00:28:34.409Z,2.90
2017-05-09T00:31:02.733Z,2.32
2017-05-09T00:33:31.105Z,2.48
2017-05-09T00:35:59.425Z,2.28
2017-05-09T00:38:27.757Z,3.47
2017-05-09T00:40:57.063Z,2.05
2017-05-09T00:43:25.380Z,2.82
2017-05-09T00:45:53.721Z,3.17
2017-05-09T00:48:22.212Z,2.90
2017-05-09T00:50:50.540Z,1.75
2017-05-09T00:53:18.861Z,2.32
2017-05-09T00:55:47.645Z,2.07
2017-05-09T00:58:15.964Z,2.12
2017-05-09T01:00:44.289Z,2.08
2017-05-09T01:03:12.660Z,2.23
2017-05-09T01:05:41.728Z,2.53
2017-05-09T01:08:10.053Z,1.95
2017-05-09T01:10:38.410Z,2.25
2017-05-09T01:13:07.472Z,2.40
2017-05-09T01:15:35.807Z,2.42
2017-05-09T01:18:04.460Z,2.68
2017-05-09T01:20:33.531Z,2.22
2017-05-09T01:23:01.863Z,1.88
2017-05-09T01:25:30.365Z,2.30
2017-05-09T01:27:58.697Z,2.05
2017-05-09T01:30:27.011Z,1.63
2017-05-09T01:32:55.761Z,2.42
2017-05-09T01:35:24.089Z,2.62
2017-05-09T01:37:52.424Z,2.17
2017-05-09T01:40:21.068Z,1.73
2017-05-09T01:42:49.389Z,1.55
2017-05-09T01:45:17.729Z,1.67
2017-05-09T01:47:46.215Z,2.08
2017-05-09T01:50:14.532Z,2.02
2017-05-09T01:52:42.877Z,2.22
2017-05-09T01:55:11.365Z,1.83
2017-05-09T01:57:40.442Z,2.05
2017-05-09T02:00:08.757Z,1.75
2017-05-09T02:02:37.123Z,2.08
2017-05-09T02:05:05.452Z,2.15
2017-05-09T02:07:35.921Z,2.35
2017-05-09T02:10:04.419Z,2.00
2017-05-09T02:12:32.744Z,1.92
2017-05-09T02:15:01.072Z,2.23
2017-05-09T02:17:29.465Z,3.08
2017-05-09T02:19:57.781Z,1.63
2017-05-09T02:22:26.105Z,2.20
2017-05-09T02:24:54.467Z,2.43
2017-05-09T02:27:23.532Z,1.83
2017-05-09T02:29:51.856Z,2.18
2017-05-09T02:32:20.225Z,1.75
2017-05-09T02:34:52.304Z,1.80
2017-05-09T02:37:20.645Z,2.42
2017-05-09T02:39:48.981Z,2.12
2017-05-09T02:42:17.301Z,2.57
2017-05-09T02:44:46.818Z,2.60
2017-05-09T02:47:15.141Z,1.78
2017-05-09T02:49:43.478Z,1.82
2017-05-09T02:52:12.677Z,2.07
2017-05-09T02:54:41.020Z,1.75
2017-05-09T02:57:09.352Z,1.98
2017-05-09T02:59:37.841Z,1.92
2017-05-09T03:02:06.170Z,2.27
2017-05-09T03:04:34.488Z,2.37
2017-05-09T03:07:02.972Z,2.08
2017-05-09T03:09:31.289Z,2.27
2017-05-09T03:11:59.621Z,1.83
2017-05-09T03:14:28.357Z,2.12
2017-05-09T03:16:56.696Z,2.40
2017-05-09T03:19:25.010Z,1.80
2017-05-09T03:21:54.273Z,2.30
2017-05-09T03:24:22.592Z,2.27
2017-05-09T03:26:50.919Z,2.45
2017-05-09T03:29:19.798Z,2.65
2017-05-09T03:31:48.140Z,2.02
2017-05-09T03:34:16.461Z,2.37
2017-05-09T03:36:44.816Z,1.98
2017-05-09T03:39:13.923Z,2.13
2017-05-09T03:41:42.245Z,2.15
2017-05-09T03:44:10.652Z,2.32
2017-05-09T03:46:39.716Z,2.38
2017-05-09T03:49:08.056Z,2.28
2017-05-09T03:51:36.466Z,2.57
2017-05-09T03:54:04.780Z,3.00
2017-05-09T03:56:34.081Z,2.20
2017-05-09T03:59:03.185Z,2.55
2017-05-09T04:01:32.241Z,2.37
2017-05-09T04:04:00.559Z,2.30
2017-05-09T04:06:29.808Z,2.33
2017-05-09T04:08:58.139Z,3.07
2017-05-09T04:11:26.479Z,3.07
2017-05-09T04:13:55.024Z,3.00
2017-05-09T04:16:23.780Z,2.78
2017-05-09T04:18:52.115Z,2.05
2017-05-09T04:21:20.652Z,2.57
2017-05-09T04:23:48.974Z,4.15
2017-05-09T04:26:17.307Z,2.93
2017-05-09T04:28:45.849Z,3.17
2017-05-09T04:31:14.169Z,3.20
2017-05-09T04:33:42.496Z,3.87
2017-05-09T04:36:10.863Z,3.23
2017-05-09T04:38:39.197Z,2.57
2017-05-09T04:41:07.510Z,2.98
2017-05-09T04:43:36.405Z,3.62
2017-05-09T04:46:04.742Z,2.67
2017-05-09T04:48:33.081Z,3.10
2017-05-09T04:51:01.441Z,3.28
2017-05-09T04:53:30.343Z,2.58
2017-05-09T04:55:58.668Z,3.02
2017-05-09T04:58:27.233Z,2.35
2017-05-09T05:00:56.301Z,3.80
2017-05-09T05:03:24.998Z,3.52
2017-05-09T05:05:53.592Z,2.67
2017-05-09T05:08:21.947Z,3.52
2017-05-09T05:10:50.280Z,2.67
2017-05-09T05:13:18.657Z,2.98
2017-05-09T05:15:46.983Z,2.88
2017-05-09T05:18:15.312Z,3.12
2017-05-09T05:20:44.163Z,3.07
2017-05-09T05:23:12.508Z,2.70
2017-05-09T05:25:40.837Z,2.27
2017-05-09T05:28:09.211Z,3.33
2017-05-09T05:30:37.541Z,2.82
2017-05-09T05:33:05.978Z,2.98
2017-05-09T05:35:34.596Z,2.43
2017-05-09T05:38:02.927Z,2.67
2017-05-09T05:40:31.245Z,3.77
2017-05-09T05:42:59.789Z,2.42
2017-05-09T05:45:28.117Z,2.70
2017-05-09T05:47:56.448Z,2.52
2017-05-09T05:50:25.254Z,2.32
2017-05-09T05:52:53.592Z,2.40
2017-05-09T05:55:22.670Z,2.70
2017-05-09T05:57:51.042Z,2.82
2017-05-09T06:00:19.396Z,4.33
2017-05-09T06:02:47.759Z,2.55
2017-05-09T06:05:16.119Z,2.30
2017-05-09T06:07:44.432Z,2.43
2017-05-09T06:10:12.764Z,2.35
2017-05-09T06:12:41.215Z,2.82
2017-05-09T06:15:09.536Z,1.83
2017-05-09T06:17:37.853Z,2.20
2017-05-09T06:20:06.255Z,2.40
2017-05-09T06:22:34.581Z,2.02
2017-05-09T06:25:02.914Z,2.00
2017-05-09T06:27:32.012Z,2.82
2017-05-09T06:30:01.071Z,2.08
2017-05-09T06:32:29.388Z,1.93
2017-05-09T06:34:58.497Z,2.03
2017-05-09T06:37:26.814Z,1.87
2017-05-09T06:39:55.140Z,2.17
2017-05-09T06:42:23.545Z,2.12
2017-05-09T06:44:51.868Z,2.18
2017-05-09T06:47:20.212Z,2.12
2017-05-09T06:49:48.892Z,2.63
2017-05-09T06:52:17.208Z,2.87
2017-05-09T06:54:45.532Z,1.62
2017-05-09T06:57:14.005Z,2.13
2017-05-09T06:59:42.328Z,2.15
2017-05-09T07:02:10.665Z,1.60
2017-05-09T07:04:39.117Z,1.68
2017-05-09T07:07:08.192Z,2.48
2017-05-09T07:09:36.521Z,1.40
2017-05-09T07:12:04.911Z,1.43
2017-05-09T07:14:33.236Z,1.68
2017-05-09T07:17:01.557Z,1.95
2017-05-09T07:19:30.324Z,1.55
2017-05-09T07:21:58.648Z,1.85
2017-05-09T07:24:26.982Z,1.95
2017-05-09T07:26:55.380Z,1.22
2017-05-09T07:29:23.710Z,1.50
2017-05-09T07:31:52.036Z,1.57
2017-05-09T07:34:20.421Z,1.70
2017-05-09T07:36:48.741Z,1.78
2017-05-09T07:39:17.072Z,1.32
2017-05-09T07:41:45.453Z,1.22
2017-05-09T07:44:13.765Z,1.75
2017-05-09T07:46:42.112Z,1.62
2017-05-09T07:49:10.572Z,1.37
2017-05-09T07:51:38.913Z,1.40
2017-05-09T07:54:07.253Z,1.88
2017-05-09T07:56:35.737Z,1.95
2017-05-09T07:59:04.071Z,1.28
2017-05-09T08:01:32.396Z,1.50
2017-05-09T08:04:00.859Z,1.48
2017-05-09T08:06:29.186Z,1.07
2017-05-09T08:08:58.284Z,1.52
2017-05-09T08:11:27.405Z,2.28
2017-05-09T08:13:55.724Z,1.43
2017-05-09T08:16:24.040Z,1.72
2017-05-09T08:18:53.342Z,1.22
2017-05-09T08:21:22.400Z,1.50
2017-05-09T08:23:50.748Z,1.40
2017-05-09T08:26:19.213Z,1.78
2017-05-09T08:28:47.537Z,1.40
2017-05-09T08:31:15.848Z,2.20
2017-05-09T08:33:44.542Z,1.67
2017-05-09T08:36:12.867Z,1.65
2017-05-09T08:38:41.196Z,1.55
2017-05-09T08:41:09.640Z,1.45
2017-05-09T08:43:38.077Z,1.80
2017-05-09T08:46:06.558Z,1.57
2017-05-09T08:48:35.017Z,1.38
2017-05-09T08:51:03.333Z,1.92
2017-05-09T08:53:31.654Z,1.40
2017-05-09T08:56:01.059Z,1.05
2017-05-09T08:58:30.124Z,0.85
2017-05-09T09:00:58.453Z,1.55
2017-05-09T09:03:27.116Z,1.52
2017-05-09T09:05:56.194Z,1.35
2017-05-09T09:08:24.512Z,1.83
2017-05-09T09:10:52.949Z,1.10
2017-05-09T09:13:21.276Z,1.05
2017-05-09T09:15:49.604Z,1.43
2017-05-09T09:18:18.084Z,1.52
2017-05-09T09:20:46.410Z,1.40
2017-05-09T09:23:14.728Z,1.28
2017-05-09T09:25:43.109Z,1.53
2017-05-09T09:28:11.427Z,1.60
2017-05-09T09:30:39.752Z,1.53
2017-05-09T09:33:08.137Z,1.47
2017-05-09T09:35:36.461Z,1.08
2017-05-09T09:38:04.789Z,2.00
2017-05-09T09:40:34.238Z,1.80
2017-05-09T09:43:02.563Z,1.53
2017-05-09T09:45:30.896Z,1.53
2017-05-09T09:47:59.274Z,1.40
2017-05-09T09:50:27.604Z,1.20
2017-05-09T09:52:55.932Z,1.47
2017-05-09T09:55:24.313Z,1.40
2017-05-09T09:57:52.640Z,1.73
2017-05-09T10:00:20.968Z,1.90
2017-05-09T10:02:49.425Z,1.92
2017-05-09T10:05:17.746Z,2.02
2017-05-09T10:07:46.077Z,1.53
2017-05-09T10:10:15.349Z,1.93
2017-05-09T10:12:43.689Z,1.62
2017-05-09T10:15:12.021Z,1.95
2017-05-09T10:17:40.727Z,1.67
2017-05-09T10:20:09.047Z,1.55
2017-05-09T10:22:37.379Z,1.65
2017-05-09T10:25:06.501Z,2.00
2017-05-09T10:27:34.849Z,2.05
2017-05-09T10:30:03.920Z,1.57
2017-05-09T10:32:32.316Z,1.55
2017-05-09T10:35:01.385Z,1.93
2017-05-09T10:37:29.712Z,2.37
2017-05-09T10:39:58.270Z,1.78
2017-05-09T10:42:27.357Z,2.18
2017-05-09T10:44:56.420Z,1.70
2017-05-09T10:47:24.807Z,1.62
2017-05-09T10:49:53.160Z,2.08
2017-05-09T10:52:21.503Z,1.70
2017-05-09T10:54:49.965Z,1.85
2017-05-09T10:57:19.036Z,2.00
2017-05-09T10:59:47.353Z,1.70
2017-05-09T11:02:16.478Z,1.85
2017-05-09T11:04:44.802Z,2.47
2017-05-09T11:07:13.140Z,2.15
2017-05-09T11:09:41.500Z,1.80
2017-05-09T11:12:09.828Z,2.33
2017-05-09T11:14:38.155Z,2.42
2017-05-09T11:17:06.714Z,1.97
2017-05-09T11:19:35.781Z,2.48
2017-05-09T11:22:04.106Z,2.57
2017-05-09T11:24:32.473Z,1.85
2017-05-09T11:27:05.816Z,2.48
2017-05-09T11:29:34.647Z,2.30
2017-05-09T11:32:03.717Z,1.98
2017-05-09T11:34:32.041Z,2.27
2017-05-09T11:37:00.484Z,2.23
2017-05-09T11:39:28.823Z,2.43
2017-05-09T11:41:57.146Z,2.27
2017-05-09T11:44:26.377Z,3.07
2017-05-09T11:46:54.712Z,2.10
2017-05-09T11:49:23.031Z,2.67
2017-05-09T11:51:51.421Z,2.07
2017-05-09T11:54:19.757Z,2.52
2017-05-09T11:56:48.839Z,2.18
2017-05-09T11:59:17.548Z,2.70
2017-05-09T12:01:45.875Z,2.45
2017-05-09T12:04:14.204Z,2.20
2017-05-09T12:06:42.705Z,2.95
2017-05-09T12:09:11.052Z,2.28
2017-05-09T12:11:40.108Z,3.25
2017-05-09T12:14:08.572Z,2.22
2017-05-09T12:16:36.904Z,2.20
2017-05-09T12:19:05.237Z,2.58
2017-05-09T12:21:33.690Z,2.77
2017-05-09T12:24:02.037Z,3.02
2017-05-09T12:26:30.369Z,3.03
2017-05-09T12:28:58.870Z,2.63
2017-05-09T12:31:27.201Z,2.88
2017-05-09T12:33:55.535Z,2.40
2017-05-09T12:36:24.240Z,2.62
2017-05-09T12:38:52.586Z,2.08
2017-05-09T12:41:20.928Z,2.37
2017-05-09T12:43:49.292Z,2.40
2017-05-09T12:46:17.612Z,3.05
2017-05-09T12:48:45.949Z,2.78
2017-05-09T12:51:14.466Z,2.73
2017-05-09T12:53:42.794Z,2.92
2017-05-09T12:56:11.870Z,2.28
2017-05-09T12:58:41.189Z,2.67
2017-05-09T13:01:09.965Z,2.68
2017-05-09T13:03:39.065Z,2.80
2017-05-09T13:06:08.203Z,2.90
2017-05-09T13:08:36.521Z,2.10
2017-05-09T13:11:04.857Z,2.73
2017-05-09T13:13:33.236Z,2.53
2017-05-09T13:16:01.556Z,2.50
2017-05-09T13:18:29.881Z,2.90
2017-05-09T13:20:58.272Z,2.40
2017-05-09T13:23:26.602Z,2.60
2017-05-09T13:25:55.668Z,2.82
2017-05-09T13:28:24.177Z,2.47
2017-05-09T13:30:53.244Z,2.95
2017-05-09T13:33:21.568Z,3.00
2017-05-09T13:35:49.948Z,3.33
2017-05-09T13:38:18.280Z,2.52
2017-05-09T13:40:46.604Z,3.17
2017-05-09T13:43:15.167Z,2.57
2017-05-09T13:45:44.233Z,2.15
2017-05-09T13:48:12.553Z,2.48
2017-05-09T13:50:41.348Z,2.50
2017-05-09T13:53:09.681Z,2.32
2017-05-09T13:55:38.007Z,2.00
2017-05-09T13:58:06.532Z,2.22
2017-05-09T14:00:34.850Z,2.12
2017-05-09T14:03:03.203Z,1.65
2017-05-09T14:05:31.625Z,2.03
2017-05-09T14:07:59.956Z,2.27
2017-05-09T14:10:28.321Z,2.22
2017-05-09T14:12:56.952Z,2.68
2017-05-09T14:15:25.277Z,2.35
2017-05-09T14:17:53.679Z,3.00
2017-05-09T14:20:23.094Z,3.10
2017-05-09T14:22:51.422Z,3.05
2017-05-09T14:25:19.754Z,3.52
2017-05-09T14:27:48.952Z,2.40
2017-05-09T14:30:17.298Z,2.80
2017-05-09T14:32:45.635Z,2.75
2017-05-09T14:35:14.148Z,2.82
2017-05-09T14:37:42.488Z,2.90
2017-05-09T14:40:10.812Z,2.82
2017-05-09T14:42:39.188Z,2.78
2017-05-09T14:45:07.512Z,3.18
2017-05-09T14:47:35.833Z,2.22
2017-05-09T14:50:04.238Z,2.82
2017-05-09T14:52:33.310Z,2.70
2017-05-09T14:55:01.640Z,2.85
2017-05-09T14:57:30.102Z,3.03
2017-05-09T14:59:58.431Z,2.80
2017-05-09T15:02:26.757Z,2.60
2017-05-09T15:04:55.231Z,3.07
2017-05-09T15:07:24.300Z,2.85
2017-05-09T15:09:52.632Z,3.23
2017-05-09T15:12:20.993Z,2.07
2017-05-09T15:14:49.326Z,3.23
2017-05-09T15:17:17.681Z,2.92
2017-05-09T15:19:46.128Z,3.92
2017-05-09T15:22:14.469Z,3.40
2017-05-09T15:24:42.788Z,2.92
2017-05-09T15:27:11.152Z,3.05
2017-05-09T15:29:40.210Z,3.38
2017-05-09T15:32:08.526Z,2.80
2017-05-09T15:34:37.627Z,3.12
2017-05-09T15:37:05.965Z,2.78
2017-05-09T15:39:34.329Z,2.95
2017-05-09T15:42:02.953Z,2.42
2017-05-09T15:44:32.020Z,3.75
2017-05-09T15:47:00.347Z,2.45
2017-05-09T15:49:28.724Z,3.12
2017-05-09T15:51:57.060Z,2.85
2017-05-09T15:54:25.397Z,2.73
2017-05-09T15:56:53.819Z,2.68
2017-05-09T15:59:22.141Z,2.57
2017-05-09T16:01:50.460Z,2.48
2017-05-09T16:04:19.189Z,2.55
2017-05-09T16:06:47.524Z,2.60
2017-05-09T16:09:15.869Z,2.53
2017-05-09T16:11:44.484Z,2.73
2017-05-09T16:14:12.858Z,3.18
2017-05-09T16:16:41.237Z,2.82
2017-05-09T16:19:09.612Z,2.87
2017-05-09T16:21:37.961Z,3.05
2017-05-09T16:24:06.349Z,3.45
2017-05-09T16:26:34.861Z,3.40
2017-05-09T16:29:03.695Z,4.02
2017-05-09T16:31:32.043Z,2.63
2017-05-09T16:34:01.323Z,2.90
2017-05-09T16:36:29.660Z,3.48
2017-05-09T16:38:58.040Z,2.17
2017-05-09T16:41:26.435Z,3.02
2017-05-09T16:43:54.768Z,3.42
2017-05-09T16:46:23.141Z,2.60
2017-05-09T16:48:51.712Z,2.17
2017-05-09T16:51:20.801Z,3.13
2017-05-09T16:53:49.129Z,2.68
2017-05-09T16:56:17.825Z,2.25
2017-05-09T16:58:46.154Z,2.80
2017-05-09T17:01:14.542Z,2.50
2017-05-09T17:03:42.905Z,2.78
2017-05-09T17:06:11.235Z,2.73
2017-05-09T17:08:39.586Z,2.35
2017-05-09T17:11:07.961Z,3.17
2017-05-09T17:13:37.048Z,2.47
2017-05-09T17:16:06.117Z,4.18
2017-05-09T17:18:35.346Z,2.55
2017-05-09T17:21:04.409Z,2.95
2017-05-09T17:23:35.516Z,2.47
2017-05-09T17:26:03.897Z,3.70
2017-05-09T17:28:32.230Z,3.00
2017-05-09T17:31:00.552Z,2.45
2017-05-09T17:33:28.921Z,2.38
2017-05-09T17:35:57.253Z,2.50
2017-05-09T17:38:26.057Z,3.18
2017-05-09T17:40:55.187Z,2.72
2017-05-09T17:43:24.526Z,2.50
2017-05-09T17:45:52.881Z,2.40
2017-05-09T17:48:21.269Z,3.32
2017-05-09T17:50:50.542Z,3.48
2017-05-09T17:53:18.904Z,2.90
2017-05-09T17:55:47.292Z,3.62
2017-05-09T17:58:15.617Z,3.40
2017-05-09T18:00:47.222Z,3.28
2017-05-09T18:03:15.973Z,2.90
2017-05-09T18:05:45.097Z,2.87
2017-05-09T18:08:14.503Z,3.97
2017-05-09T18:10:42.957Z,2.83
2017-05-09T18:13:11.298Z,3.35
2017-05-09T18:15:39.621Z,2.88
2017-05-09T18:18:08.122Z,3.03
2017-05-09T18:20:36.457Z,3.63
2017-05-09T18:23:04.818Z,3.03
2017-05-09T18:25:33.271Z,3.18
2017-05-09T18:28:01.609Z,3.25
2017-05-09T18:30:30.689Z,3.83
2017-05-09T18:32:59.047Z,3.28
2017-05-09T18:35:27.385Z,2.80
2017-05-09T18:37:56.430Z,3.53
2017-05-09T18:40:25.088Z,3.65
2017-05-09T18:42:53.439Z,3.40
2017-05-09T18:45:21.784Z,4.17
2017-05-09T18:47:50.992Z,2.92
2017-05-09T18:50:19.329Z,3.57
2017-05-09T18:52:47.648Z,3.87
2017-05-09T18:55:16.134Z,3.85
2017-05-09T18:57:44.499Z,2.90
2017-05-09T19:00:12.826Z,3.27
2017-05-09T19:02:41.474Z,3.60
2017-05-09T19:05:10.048Z,3.55
2017-05-09T19:07:38.378Z,3.03
2017-05-09T19:10:07.039Z,2.63
2017-05-09T19:12:35.415Z,3.58
2017-05-09T19:15:03.748Z,3.30
2017-05-09T19:17:33.020Z,3.33
2017-05-09T19:20:01.367Z,3.43
2017-05-09T19:22:29.769Z,3.32
2017-05-09T19:24:59.162Z,3.98
2017-05-09T19:27:27.490Z,3.63
2017-05-09T19:29:56.571Z,3.42
2017-05-09T19:32:25.105Z,3.97
2017-05-09T19:34:53.459Z,4.47
2017-05-09T19:37:21.795Z,3.73
2017-05-09T19:39:50.527Z,5.05
2017-05-09T19:42:18.883Z,3.77
2017-05-09T19:44:47.991Z,3.45
2017-05-09T19:47:16.421Z,3.97
2017-05-09T19:49:44.745Z,3.50
2017-05-09T19:52:13.844Z,2.85
2017-05-09T19:54:42.371Z,3.95
2017-05-09T19:57:10.736Z,3.78
2017-05-09T19:59:39.087Z,3.45
2017-05-09T20:02:07.636Z,3.77
2017-05-09T20:04:36.748Z,3.60
2017-05-09T20:07:05.827Z,3.47
2017-05-09T20:09:35.148Z,3.72
2017-05-09T20:12:03.499Z,3.35
2017-05-09T20:14:31.837Z,3.12
2017-05-09T20:17:00.351Z,2.80
2017-05-09T20:19:28.693Z,2.48
2017-05-09T20:21:57.023Z,2.77
2017-05-09T20:24:25.579Z,3.20
2017-05-09T20:26:53.909Z,2.58
2017-05-09T20:29:22.236Z,3.93
2017-05-09T20:31:50.738Z,2.85
2017-05-09T20:34:19.092Z,2.57
2017-05-09T20:36:47.425Z,2.92
2017-05-09T20:39:15.935Z,3.67
2017-05-09T20:41:44.258Z,4.33
2017-05-09T20:44:12.611Z,3.30
2017-05-09T20:46:41.243Z,3.52
2017-05-09T20:49:09.601Z,3.52
2017-05-09T20:51:38.696Z,3.03
2017-05-09T20:54:07.922Z,3.97
2017-05-09T20:56:36.237Z,3.58
2017-05-09T20:59:04.637Z,3.07
2017-05-09T21:01:33.145Z,2.95
2017-05-09T21:04:03.433Z,3.47
2017-05-09T21:06:31.770Z,3.68
2017-05-09T21:09:00.131Z,3.35
2017-05-09T21:11:28.472Z,3.15
2017-05-09T21:13:56.902Z,3.15
2017-05-09T21:16:25.304Z,2.78
2017-05-09T21:18:53.644Z,3.12
2017-05-09T21:21:21.993Z,3.78
2017-05-09T21:23:52.181Z,2.80
2017-05-09T21:26:20.566Z,2.82
2017-05-09T21:28:48.911Z,3.07
2017-05-09T21:31:17.293Z,2.83
2017-05-09T21:33:45.641Z,3.62
2017-05-09T21:36:14.956Z,2.40
2017-05-09T21:38:43.536Z,3.50
2017-05-09T21:41:11.878Z,3.28
2017-05-09T21:43:41.146Z,2.67
2017-05-09T21:46:09.905Z,2.45
2017-05-09T21:48:38.285Z,2.67
2017-05-09T21:51:06.636Z,4.20
2017-05-09T21:53:35.173Z,2.88
2017-05-09T21:56:03.494Z,3.93
2017-05-09T21:58:31.829Z,3.13
2017-05-09T22:01:00.200Z,3.40
2017-05-09T22:03:28.530Z,3.72
2017-05-09T22:05:56.878Z,3.13
2017-05-09T22:08:25.257Z,3.15
2017-05-09T22:10:53.611Z,3.00
2017-05-09T22:13:21.943Z,3.68
2017-05-09T22:15:51.454Z,3.15
2017-05-09T22:18:19.785Z,3.20
2017-05-09T22:20:48.136Z,2.75
2017-05-09T22:23:16.628Z,2.48
2017-05-09T22:25:44.980Z,2.70
2017-05-09T22:28:13.367Z,3.35
2017-05-09T22:30:41.752Z,2.80
2017-05-09T22:33:10.098Z,3.12
2017-05-09T22:35:38.460Z,3.18
2017-05-09T22:38:07.617Z,3.08
2017-05-09T22:40:36.005Z,3.38
2017-05-09T22:43:04.368Z,3.72
2017-05-09T22:45:32.730Z,3.00
2017-05-09T22:48:01.064Z,2.88
2017-05-09T22:50:29.411Z,3.03
2017-05-09T22:52:57.775Z,3.48
2017-05-09T22:55:26.143Z,2.85
2017-05-09T22:57:54.489Z,2.95
2017-05-09T23:00:23.730Z,3.02
2017-05-09T23:02:52.074Z,3.03
2017-05-09T23:05:21.227Z,3.72
2017-05-09T23:07:49.625Z,3.65
2017-05-09T23:10:18.731Z,3.52
2017-05-09T23:12:47.065Z,3.47
2017-05-09T23:15:15.445Z,3.35
2017-05-09T23:17:43.774Z,3.58
2017-05-09T23:20:12.142Z,5.05
2017-05-09T23:22:40.645Z,3.88
2017-05-09T23:25:09.012Z,4.77
2017-05-09T23:27:38.167Z,3.00
2017-05-09T23:30:06.724Z,4.62
2017-05-09T23:32:38.764Z,3.20
2017-05-09T23:35:07.218Z,4.27
2017-05-09T23:37:35.539Z,3.23
2017-05-09T23:40:03.866Z,3.23
2017-05-09T23:42:32.268Z,3.85
2017-05-09T23:45:00.597Z,4.68
2017-05-09T23:47:28.944Z,3.77
2017-05-09T23:49:57.720Z,4.65
2017-05-09T23:52:26.043Z,3.70
2017-05-09T23:54:54.373Z,3.63
2017-05-09T23:57:22.870Z,3.62
2017-05-09T23:59:51.399Z,4.07
